sensor_id;sensor_type;location;lat;lon;timestamp;P1;durP1;ratioP1;P2;durP2;ratioP2
25950;SDS011;13748;52.240;6.002;2023-04-08T00:00:30;100.87;;;20.30;;
25950;SDS011;13748;52.240;6.002;2023-04-08T00:02:57;62.00;;;17.40;;
25950;SDS011;13748;52.240;6.002;2023-04-08T00:05:24;87.83;;;19.83;;
25950;SDS011;13748;52.240;6.002;2023-04-08T00:07:52;72.83;;;18.40;;
25950;SDS011;13748;52.240;6.002;2023-04-08T00:10:19;54.33;;;17.17;;
25950;SDS011;13748;52.240;6.002;2023-04-08T00:12:46;94.23;;;16.90;;
25950;SDS011;13748;52.240;6.002;2023-04-08T00:15:14;59.70;;;16.77;;
25950;SDS011;13748;52.240;6.002;2023-04-08T00:17:41;36.87;;;15.43;;
25950;SDS011;13748;52.240;6.002;2023-04-08T00:20:08;45.50;;;15.57;;
25950;SDS011;13748;52.240;6.002;2023-04-08T00:22:35;35.67;;;14.20;;
25950;SDS011;13748;52.240;6.002;2023-04-08T00:25:02;38.33;;;14.70;;
25950;SDS011;13748;52.240;6.002;2023-04-08T00:27:32;34.87;;;15.67;;
25950;SDS011;13748;52.240;6.002;2023-04-08T00:29:59;33.27;;;14.77;;
25950;SDS011;13748;52.240;6.002;2023-04-08T00:32:26;33.80;;;15.70;;
25950;SDS011;13748;52.240;6.002;2023-04-08T00:34:54;39.77;;;16.23;;
25950;SDS011;13748;52.240;6.002;2023-04-08T00:37:21;36.00;;;15.93;;
25950;SDS011;13748;52.240;6.002;2023-04-08T00:39:50;36.33;;;15.80;;
25950;SDS011;13748;52.240;6.002;2023-04-08T00:42:19;34.47;;;14.53;;
25950;SDS011;13748;52.240;6.002;2023-04-08T00:44:47;34.87;;;14.90;;
25950;SDS011;13748;52.240;6.002;2023-04-08T00:47:14;36.87;;;15.07;;
25950;SDS011;13748;52.240;6.002;2023-04-08T00:49:42;44.43;;;16.30;;
25950;SDS011;13748;52.240;6.002;2023-04-08T00:52:09;28.67;;;14.80;;
25950;SDS011;13748;52.240;6.002;2023-04-08T00:54:36;34.67;;;16.07;;
25950;SDS011;13748;52.240;6.002;2023-04-08T00:57:04;38.43;;;15.73;;
25950;SDS011;13748;52.240;6.002;2023-04-08T00:59:31;39.30;;;17.27;;
25950;SDS011;13748;52.240;6.002;2023-04-08T01:02:44;40.40;;;18.33;;
25950;SDS011;13748;52.240;6.002;2023-04-08T01:05:14;35.37;;;17.23;;
25950;SDS011;13748;52.240;6.002;2023-04-08T01:08:01;40.60;;;17.80;;
25950;SDS011;13748;52.240;6.002;2023-04-08T01:10:32;41.87;;;19.97;;
25950;SDS011;13748;52.240;6.002;2023-04-08T01:13:07;45.40;;;19.07;;
25950;SDS011;13748;52.240;6.002;2023-04-08T01:15:37;50.17;;;21.20;;
25950;SDS011;13748;52.240;6.002;2023-04-08T01:18:07;55.77;;;22.33;;
25950;SDS011;13748;52.240;6.002;2023-04-08T01:20:38;48.17;;;21.20;;
25950;SDS011;13748;52.240;6.002;2023-04-08T01:25:50;44.07;;;20.27;;
25950;SDS011;13748;52.240;6.002;2023-04-08T01:28:19;56.67;;;23.10;;
25950;SDS011;13748;52.240;6.002;2023-04-08T01:30:48;48.87;;;22.93;;
25950;SDS011;13748;52.240;6.002;2023-04-08T01:33:17;50.23;;;23.00;;
25950;SDS011;13748;52.240;6.002;2023-04-08T01:35:45;48.80;;;22.37;;
25950;SDS011;13748;52.240;6.002;2023-04-08T01:38:13;50.37;;;22.37;;
25950;SDS011;13748;52.240;6.002;2023-04-08T01:40:43;41.20;;;20.80;;
25950;SDS011;13748;52.240;6.002;2023-04-08T01:43:12;49.70;;;21.87;;
25950;SDS011;13748;52.240;6.002;2023-04-08T01:45:42;53.40;;;22.80;;
25950;SDS011;13748;52.240;6.002;2023-04-08T01:48:11;60.90;;;25.47;;
25950;SDS011;13748;52.240;6.002;2023-04-08T01:50:43;49.77;;;22.07;;
25950;SDS011;13748;52.240;6.002;2023-04-08T01:53:10;58.43;;;24.77;;
25950;SDS011;13748;52.240;6.002;2023-04-08T01:55:38;52.47;;;22.97;;
25950;SDS011;13748;52.240;6.002;2023-04-08T01:58:06;51.93;;;24.30;;
25950;SDS011;13748;52.240;6.002;2023-04-08T02:00:36;57.43;;;25.33;;
25950;SDS011;13748;52.240;6.002;2023-04-08T02:03:06;63.13;;;26.60;;
25950;SDS011;13748;52.240;6.002;2023-04-08T02:05:34;66.30;;;27.30;;
25950;SDS011;13748;52.240;6.002;2023-04-08T02:08:01;65.50;;;25.40;;
25950;SDS011;13748;52.240;6.002;2023-04-08T02:10:28;54.33;;;25.17;;
25950;SDS011;13748;52.240;6.002;2023-04-08T02:12:56;59.60;;;26.60;;
25950;SDS011;13748;52.240;6.002;2023-04-08T02:15:23;56.10;;;25.90;;
25950;SDS011;13748;52.240;6.002;2023-04-08T02:17:54;66.70;;;29.47;;
25950;SDS011;13748;52.240;6.002;2023-04-08T02:20:30;65.97;;;29.43;;
25950;SDS011;13748;52.240;6.002;2023-04-08T02:23:12;67.23;;;27.60;;
25950;SDS011;13748;52.240;6.002;2023-04-08T02:25:45;57.87;;;27.57;;
25950;SDS011;13748;52.240;6.002;2023-04-08T02:28:14;60.60;;;27.20;;
25950;SDS011;13748;52.240;6.002;2023-04-08T02:30:47;64.27;;;26.90;;
25950;SDS011;13748;52.240;6.002;2023-04-08T02:33:17;61.67;;;28.20;;
25950;SDS011;13748;52.240;6.002;2023-04-08T02:35:46;66.30;;;27.63;;
25950;SDS011;13748;52.240;6.002;2023-04-08T02:38:15;57.53;;;26.37;;
25950;SDS011;13748;52.240;6.002;2023-04-08T02:40:42;62.93;;;26.70;;
25950;SDS011;13748;52.240;6.002;2023-04-08T02:43:09;70.73;;;28.57;;
25950;SDS011;13748;52.240;6.002;2023-04-08T02:45:42;60.90;;;28.87;;
25950;SDS011;13748;52.240;6.002;2023-04-08T02:48:10;62.23;;;27.27;;
25950;SDS011;13748;52.240;6.002;2023-04-08T02:50:36;57.77;;;27.73;;
25950;SDS011;13748;52.240;6.002;2023-04-08T02:53:04;62.40;;;27.87;;
25950;SDS011;13748;52.240;6.002;2023-04-08T02:55:30;56.90;;;27.70;;
25950;SDS011;13748;52.240;6.002;2023-04-08T02:57:57;64.63;;;27.80;;
25950;SDS011;13748;52.240;6.002;2023-04-08T03:00:24;64.50;;;27.63;;
25950;SDS011;13748;52.240;6.002;2023-04-08T03:02:51;57.63;;;26.57;;
25950;SDS011;13748;52.240;6.002;2023-04-08T03:05:18;56.87;;;26.20;;
25950;SDS011;13748;52.240;6.002;2023-04-08T03:07:45;54.93;;;25.30;;
25950;SDS011;13748;52.240;6.002;2023-04-08T03:10:12;52.00;;;24.37;;
25950;SDS011;13748;52.240;6.002;2023-04-08T03:12:39;53.57;;;25.40;;
25950;SDS011;13748;52.240;6.002;2023-04-08T03:15:06;62.70;;;27.23;;
25950;SDS011;13748;52.240;6.002;2023-04-08T03:17:33;56.53;;;26.80;;
25950;SDS011;13748;52.240;6.002;2023-04-08T03:20:01;62.33;;;26.47;;
25950;SDS011;13748;52.240;6.002;2023-04-08T03:22:30;50.77;;;24.17;;
25950;SDS011;13748;52.240;6.002;2023-04-08T03:24:58;58.53;;;26.70;;
25950;SDS011;13748;52.240;6.002;2023-04-08T03:27:25;58.90;;;26.07;;
25950;SDS011;13748;52.240;6.002;2023-04-08T03:29:52;51.27;;;23.37;;
25950;SDS011;13748;52.240;6.002;2023-04-08T03:32:19;51.97;;;23.67;;
25950;SDS011;13748;52.240;6.002;2023-04-08T03:34:46;54.10;;;24.20;;
25950;SDS011;13748;52.240;6.002;2023-04-08T03:37:14;54.37;;;24.50;;
25950;SDS011;13748;52.240;6.002;2023-04-08T03:39:42;61.03;;;26.03;;
25950;SDS011;13748;52.240;6.002;2023-04-08T03:42:09;51.33;;;24.33;;
25950;SDS011;13748;52.240;6.002;2023-04-08T03:44:35;60.80;;;25.03;;
25950;SDS011;13748;52.240;6.002;2023-04-08T03:47:04;48.80;;;22.67;;
25950;SDS011;13748;52.240;6.002;2023-04-08T03:49:31;48.40;;;22.60;;
25950;SDS011;13748;52.240;6.002;2023-04-08T03:51:58;51.63;;;23.43;;
25950;SDS011;13748;52.240;6.002;2023-04-08T03:54:25;44.77;;;21.97;;
25950;SDS011;13748;52.240;6.002;2023-04-08T03:56:53;51.20;;;22.20;;
25950;SDS011;13748;52.240;6.002;2023-04-08T03:59:19;52.50;;;22.50;;
25950;SDS011;13748;52.240;6.002;2023-04-08T04:01:46;48.50;;;22.00;;
25950;SDS011;13748;52.240;6.002;2023-04-08T04:04:13;49.73;;;22.27;;
25950;SDS011;13748;52.240;6.002;2023-04-08T04:06:41;45.67;;;20.40;;
25950;SDS011;13748;52.240;6.002;2023-04-08T04:09:08;44.30;;;22.00;;
25950;SDS011;13748;52.240;6.002;2023-04-08T04:11:36;48.10;;;22.17;;
25950;SDS011;13748;52.240;6.002;2023-04-08T04:14:03;50.23;;;23.00;;
25950;SDS011;13748;52.240;6.002;2023-04-08T04:16:30;50.47;;;22.37;;
25950;SDS011;13748;52.240;6.002;2023-04-08T04:18:58;51.30;;;22.67;;
25950;SDS011;13748;52.240;6.002;2023-04-08T04:21:25;50.07;;;22.43;;
25950;SDS011;13748;52.240;6.002;2023-04-08T04:23:52;47.83;;;22.33;;
25950;SDS011;13748;52.240;6.002;2023-04-08T04:26:19;47.57;;;21.47;;
25950;SDS011;13748;52.240;6.002;2023-04-08T04:28:47;47.80;;;21.90;;
25950;SDS011;13748;52.240;6.002;2023-04-08T04:31:21;52.57;;;23.37;;
25950;SDS011;13748;52.240;6.002;2023-04-08T04:33:51;46.13;;;21.73;;
25950;SDS011;13748;52.240;6.002;2023-04-08T04:36:19;48.77;;;22.63;;
25950;SDS011;13748;52.240;6.002;2023-04-08T04:38:45;49.33;;;23.47;;
25950;SDS011;13748;52.240;6.002;2023-04-08T04:41:15;56.10;;;23.03;;
25950;SDS011;13748;52.240;6.002;2023-04-08T04:43:42;63.50;;;25.67;;
25950;SDS011;13748;52.240;6.002;2023-04-08T04:46:09;51.27;;;23.63;;
25950;SDS011;13748;52.240;6.002;2023-04-08T04:48:36;58.57;;;25.40;;
25950;SDS011;13748;52.240;6.002;2023-04-08T04:51:03;59.60;;;24.57;;
25950;SDS011;13748;52.240;6.002;2023-04-08T04:53:30;65.00;;;25.67;;
25950;SDS011;13748;52.240;6.002;2023-04-08T04:55:57;57.47;;;23.60;;
25950;SDS011;13748;52.240;6.002;2023-04-08T04:58:26;56.10;;;25.17;;
25950;SDS011;13748;52.240;6.002;2023-04-08T05:00:53;54.17;;;25.57;;
25950;SDS011;13748;52.240;6.002;2023-04-08T05:03:20;57.83;;;25.63;;
25950;SDS011;13748;52.240;6.002;2023-04-08T05:05:51;57.77;;;24.50;;
25950;SDS011;13748;52.240;6.002;2023-04-08T05:08:19;52.70;;;23.30;;
25950;SDS011;13748;52.240;6.002;2023-04-08T05:10:47;64.37;;;27.40;;
25950;SDS011;13748;52.240;6.002;2023-04-08T05:13:16;62.97;;;26.17;;
25950;SDS011;13748;52.240;6.002;2023-04-08T05:15:43;60.63;;;25.33;;
25950;SDS011;13748;52.240;6.002;2023-04-08T05:18:11;69.30;;;27.50;;
25950;SDS011;13748;52.240;6.002;2023-04-08T05:20:38;70.53;;;27.67;;
25950;SDS011;13748;52.240;6.002;2023-04-08T05:23:05;64.27;;;27.57;;
25950;SDS011;13748;52.240;6.002;2023-04-08T05:25:33;70.70;;;28.70;;
25950;SDS011;13748;52.240;6.002;2023-04-08T05:27:59;59.33;;;25.93;;
25950;SDS011;13748;52.240;6.002;2023-04-08T05:30:26;71.50;;;29.63;;
25950;SDS011;13748;52.240;6.002;2023-04-08T05:32:53;64.83;;;26.93;;
25950;SDS011;13748;52.240;6.002;2023-04-08T05:35:23;61.73;;;28.00;;
25950;SDS011;13748;52.240;6.002;2023-04-08T05:37:49;68.30;;;28.63;;
25950;SDS011;13748;52.240;6.002;2023-04-08T05:40:16;63.60;;;27.23;;
25950;SDS011;13748;52.240;6.002;2023-04-08T05:42:43;75.47;;;27.87;;
25950;SDS011;13748;52.240;6.002;2023-04-08T05:45:10;67.30;;;28.50;;
25950;SDS011;13748;52.240;6.002;2023-04-08T05:47:37;56.10;;;25.63;;
25950;SDS011;13748;52.240;6.002;2023-04-08T05:50:04;75.80;;;30.50;;
25950;SDS011;13748;52.240;6.002;2023-04-08T05:52:31;66.50;;;29.23;;
25950;SDS011;13748;52.240;6.002;2023-04-08T05:54:59;69.10;;;29.97;;
25950;SDS011;13748;52.240;6.002;2023-04-08T05:57:26;68.43;;;28.70;;
25950;SDS011;13748;52.240;6.002;2023-04-08T05:59:53;68.77;;;31.03;;
25950;SDS011;13748;52.240;6.002;2023-04-08T06:02:19;79.57;;;31.20;;
25950;SDS011;13748;52.240;6.002;2023-04-08T06:04:47;71.40;;;29.67;;
25950;SDS011;13748;52.240;6.002;2023-04-08T06:07:14;77.07;;;31.03;;
25950;SDS011;13748;52.240;6.002;2023-04-08T06:09:40;72.00;;;31.00;;
25950;SDS011;13748;52.240;6.002;2023-04-08T06:12:10;72.10;;;31.43;;
25950;SDS011;13748;52.240;6.002;2023-04-08T06:14:37;78.03;;;32.13;;
25950;SDS011;13748;52.240;6.002;2023-04-08T06:17:04;75.00;;;31.23;;
25950;SDS011;13748;52.240;6.002;2023-04-08T06:19:31;74.87;;;32.13;;
25950;SDS011;13748;52.240;6.002;2023-04-08T06:22:00;77.73;;;32.23;;
25950;SDS011;13748;52.240;6.002;2023-04-08T06:24:27;77.70;;;32.53;;
25950;SDS011;13748;52.240;6.002;2023-04-08T06:26:54;78.53;;;32.97;;
25950;SDS011;13748;52.240;6.002;2023-04-08T06:29:22;77.90;;;31.50;;
25950;SDS011;13748;52.240;6.002;2023-04-08T06:31:49;75.03;;;33.20;;
25950;SDS011;13748;52.240;6.002;2023-04-08T06:34:16;84.27;;;35.03;;
25950;SDS011;13748;52.240;6.002;2023-04-08T06:36:43;82.93;;;34.57;;
25950;SDS011;13748;52.240;6.002;2023-04-08T06:39:10;97.47;;;37.67;;
25950;SDS011;13748;52.240;6.002;2023-04-08T06:41:38;80.57;;;36.03;;
25950;SDS011;13748;52.240;6.002;2023-04-08T06:44:05;86.20;;;36.23;;
25950;SDS011;13748;52.240;6.002;2023-04-08T06:46:31;74.47;;;34.93;;
25950;SDS011;13748;52.240;6.002;2023-04-08T06:48:58;75.77;;;34.00;;
25950;SDS011;13748;52.240;6.002;2023-04-08T06:51:25;69.30;;;32.90;;
25950;SDS011;13748;52.240;6.002;2023-04-08T06:53:53;62.17;;;29.80;;
25950;SDS011;13748;52.240;6.002;2023-04-08T06:56:20;58.73;;;29.93;;
25950;SDS011;13748;52.240;6.002;2023-04-08T06:58:48;51.33;;;27.63;;
25950;SDS011;13748;52.240;6.002;2023-04-08T07:01:15;53.27;;;28.07;;
25950;SDS011;13748;52.240;6.002;2023-04-08T07:03:42;51.47;;;27.00;;
25950;SDS011;13748;52.240;6.002;2023-04-08T07:06:09;48.20;;;26.87;;
25950;SDS011;13748;52.240;6.002;2023-04-08T07:08:36;49.57;;;26.20;;
25950;SDS011;13748;52.240;6.002;2023-04-08T07:11:05;53.23;;;26.93;;
25950;SDS011;13748;52.240;6.002;2023-04-08T07:13:34;58.30;;;28.67;;
25950;SDS011;13748;52.240;6.002;2023-04-08T07:16:01;57.30;;;28.80;;
25950;SDS011;13748;52.240;6.002;2023-04-08T07:18:28;56.43;;;28.67;;
25950;SDS011;13748;52.240;6.002;2023-04-08T07:20:56;54.73;;;28.93;;
25950;SDS011;13748;52.240;6.002;2023-04-08T07:23:23;49.43;;;27.93;;
25950;SDS011;13748;52.240;6.002;2023-04-08T07:25:50;44.07;;;24.77;;
25950;SDS011;13748;52.240;6.002;2023-04-08T07:28:17;40.67;;;24.13;;
25950;SDS011;13748;52.240;6.002;2023-04-08T07:30:45;40.63;;;24.53;;
25950;SDS011;13748;52.240;6.002;2023-04-08T07:33:12;37.87;;;23.77;;
25950;SDS011;13748;52.240;6.002;2023-04-08T07:35:41;43.87;;;26.67;;
25950;SDS011;13748;52.240;6.002;2023-04-08T07:38:09;38.07;;;24.20;;
25950;SDS011;13748;52.240;6.002;2023-04-08T07:40:36;30.30;;;19.10;;
25950;SDS011;13748;52.240;6.002;2023-04-08T07:43:03;20.20;;;16.07;;
25950;SDS011;13748;52.240;6.002;2023-04-08T07:45:31;19.60;;;14.63;;
25950;SDS011;13748;52.240;6.002;2023-04-08T07:47:58;19.40;;;13.87;;
25950;SDS011;13748;52.240;6.002;2023-04-08T07:50:29;16.80;;;12.40;;
25950;SDS011;13748;52.240;6.002;2023-04-08T07:52:57;16.60;;;11.23;;
25950;SDS011;13748;52.240;6.002;2023-04-08T07:55:24;17.17;;;11.97;;
25950;SDS011;13748;52.240;6.002;2023-04-08T07:57:51;15.97;;;11.07;;
25950;SDS011;13748;52.240;6.002;2023-04-08T08:00:19;15.23;;;10.67;;
25950;SDS011;13748;52.240;6.002;2023-04-08T08:02:47;16.93;;;11.20;;
25950;SDS011;13748;52.240;6.002;2023-04-08T08:05:14;16.60;;;11.73;;
25950;SDS011;13748;52.240;6.002;2023-04-08T08:07:41;14.13;;;10.93;;
25950;SDS011;13748;52.240;6.002;2023-04-08T08:10:08;15.27;;;11.00;;
25950;SDS011;13748;52.240;6.002;2023-04-08T08:12:36;12.90;;;10.60;;
25950;SDS011;13748;52.240;6.002;2023-04-08T08:15:03;12.87;;;10.47;;
25950;SDS011;13748;52.240;6.002;2023-04-08T08:17:30;12.97;;;10.30;;
25950;SDS011;13748;52.240;6.002;2023-04-08T08:19:59;11.03;;;9.63;;
25950;SDS011;13748;52.240;6.002;2023-04-08T08:22:26;12.00;;;10.20;;
25950;SDS011;13748;52.240;6.002;2023-04-08T08:24:56;13.00;;;10.73;;
25950;SDS011;13748;52.240;6.002;2023-04-08T08:27:24;12.13;;;10.13;;
25950;SDS011;13748;52.240;6.002;2023-04-08T08:29:51;14.98;;;10.45;;
25950;SDS011;13748;52.240;6.002;2023-04-08T08:32:18;11.27;;;9.80;;
25950;SDS011;13748;52.240;6.002;2023-04-08T08:34:45;12.75;;;10.77;;
25950;SDS011;13748;52.240;6.002;2023-04-08T08:37:12;14.40;;;10.82;;
25950;SDS011;13748;52.240;6.002;2023-04-08T08:39:38;13.32;;;10.35;;
25950;SDS011;13748;52.240;6.002;2023-04-08T08:42:05;14.23;;;10.75;;
25950;SDS011;13748;52.240;6.002;2023-04-08T08:44:33;14.32;;;11.25;;
25950;SDS011;13748;52.240;6.002;2023-04-08T08:47:00;15.70;;;11.35;;
25950;SDS011;13748;52.240;6.002;2023-04-08T08:49:26;13.18;;;10.73;;
25950;SDS011;13748;52.240;6.002;2023-04-08T08:51:53;14.52;;;11.55;;
25950;SDS011;13748;52.240;6.002;2023-04-08T08:54:21;13.93;;;11.80;;
25950;SDS011;13748;52.240;6.002;2023-04-08T08:56:48;14.18;;;11.98;;
25950;SDS011;13748;52.240;6.002;2023-04-08T08:59:15;16.90;;;12.02;;
25950;SDS011;13748;52.240;6.002;2023-04-08T09:01:41;14.20;;;11.65;;
25950;SDS011;13748;52.240;6.002;2023-04-08T09:04:10;17.92;;;14.07;;
25950;SDS011;13748;52.240;6.002;2023-04-08T09:06:41;17.25;;;13.23;;
25950;SDS011;13748;52.240;6.002;2023-04-08T09:09:09;15.88;;;13.07;;
25950;SDS011;13748;52.240;6.002;2023-04-08T09:11:36;16.20;;;12.88;;
25950;SDS011;13748;52.240;6.002;2023-04-08T09:14:05;13.48;;;11.60;;
25950;SDS011;13748;52.240;6.002;2023-04-08T09:16:43;16.35;;;11.23;;
25950;SDS011;13748;52.240;6.002;2023-04-08T09:19:10;15.35;;;12.40;;
25950;SDS011;13748;52.240;6.002;2023-04-08T09:21:37;14.60;;;12.20;;
25950;SDS011;13748;52.240;6.002;2023-04-08T09:24:07;16.33;;;12.45;;
25950;SDS011;13748;52.240;6.002;2023-04-08T09:26:35;15.85;;;12.82;;
25950;SDS011;13748;52.240;6.002;2023-04-08T09:29:06;14.35;;;12.18;;
25950;SDS011;13748;52.240;6.002;2023-04-08T09:31:54;14.38;;;10.45;;
25950;SDS011;13748;52.240;6.002;2023-04-08T09:34:23;14.40;;;11.35;;
25950;SDS011;13748;52.240;6.002;2023-04-08T09:36:51;14.43;;;11.60;;
25950;SDS011;13748;52.240;6.002;2023-04-08T09:39:18;19.23;;;12.30;;
25950;SDS011;13748;52.240;6.002;2023-04-08T09:41:49;13.87;;;11.17;;
25950;SDS011;13748;52.240;6.002;2023-04-08T09:44:17;14.10;;;10.53;;
25950;SDS011;13748;52.240;6.002;2023-04-08T09:52:29;13.63;;;10.73;;
25950;SDS011;13748;52.240;6.002;2023-04-08T09:55:11;15.48;;;11.77;;
25950;SDS011;13748;52.240;6.002;2023-04-08T09:57:40;13.73;;;10.65;;
25950;SDS011;13748;52.240;6.002;2023-04-08T10:00:21;15.07;;;11.00;;
25950;SDS011;13748;52.240;6.002;2023-04-08T10:05:23;11.48;;;10.02;;
25950;SDS011;13748;52.240;6.002;2023-04-08T10:07:51;12.63;;;9.90;;
25950;SDS011;13748;52.240;6.002;2023-04-08T10:10:18;13.47;;;10.03;;
25950;SDS011;13748;52.240;6.002;2023-04-08T10:12:46;14.77;;;9.87;;
25950;SDS011;13748;52.240;6.002;2023-04-08T10:15:21;15.43;;;9.93;;
25950;SDS011;13748;52.240;6.002;2023-04-08T10:17:54;13.95;;;9.98;;
25950;SDS011;13748;52.240;6.002;2023-04-08T10:20:45;15.77;;;10.27;;
25950;SDS011;13748;52.240;6.002;2023-04-08T10:23:14;13.20;;;10.77;;
25950;SDS011;13748;52.240;6.002;2023-04-08T10:25:42;13.27;;;10.52;;
25950;SDS011;13748;52.240;6.002;2023-04-08T10:33:12;13.38;;;9.95;;
25950;SDS011;13748;52.240;6.002;2023-04-08T10:36:00;10.70;;;9.43;;
25950;SDS011;13748;52.240;6.002;2023-04-08T10:38:40;13.17;;;9.67;;
25950;SDS011;13748;52.240;6.002;2023-04-08T10:41:09;10.80;;;8.80;;
25950;SDS011;13748;52.240;6.002;2023-04-08T10:43:36;11.40;;;9.05;;
25950;SDS011;13748;52.240;6.002;2023-04-08T10:46:03;11.57;;;8.48;;
25950;SDS011;13748;52.240;6.002;2023-04-08T10:48:30;9.23;;;7.90;;
25950;SDS011;13748;52.240;6.002;2023-04-08T10:51:01;10.82;;;7.75;;
25950;SDS011;13748;52.240;6.002;2023-04-08T10:53:30;10.75;;;8.02;;
25950;SDS011;13748;52.240;6.002;2023-04-08T10:56:08;9.97;;;8.13;;
25950;SDS011;13748;52.240;6.002;2023-04-08T10:58:48;11.55;;;8.65;;
25950;SDS011;13748;52.240;6.002;2023-04-08T11:01:18;11.13;;;8.75;;
25950;SDS011;13748;52.240;6.002;2023-04-08T11:03:45;9.50;;;7.93;;
25950;SDS011;13748;52.240;6.002;2023-04-08T11:06:12;12.07;;;9.23;;
25950;SDS011;13748;52.240;6.002;2023-04-08T11:08:39;11.63;;;8.95;;
25950;SDS011;13748;52.240;6.002;2023-04-08T11:11:06;13.15;;;8.95;;
25950;SDS011;13748;52.240;6.002;2023-04-08T11:13:40;11.68;;;8.70;;
25950;SDS011;13748;52.240;6.002;2023-04-08T11:16:19;9.57;;;8.25;;
25950;SDS011;13748;52.240;6.002;2023-04-08T11:18:48;11.65;;;9.05;;
25950;SDS011;13748;52.240;6.002;2023-04-08T11:21:16;13.18;;;9.65;;
25950;SDS011;13748;52.240;6.002;2023-04-08T11:23:43;11.68;;;8.57;;
25950;SDS011;13748;52.240;6.002;2023-04-08T11:26:10;9.98;;;7.97;;
25950;SDS011;13748;52.240;6.002;2023-04-08T11:28:38;9.98;;;8.13;;
25950;SDS011;13748;52.240;6.002;2023-04-08T11:31:05;11.38;;;9.15;;
25950;SDS011;13748;52.240;6.002;2023-04-08T11:33:34;11.40;;;9.43;;
25950;SDS011;13748;52.240;6.002;2023-04-08T11:36:01;14.63;;;10.27;;
25950;SDS011;13748;52.240;6.002;2023-04-08T11:38:30;12.80;;;10.05;;
25950;SDS011;13748;52.240;6.002;2023-04-08T11:40:57;12.82;;;9.90;;
25950;SDS011;13748;52.240;6.002;2023-04-08T11:43:25;14.52;;;10.63;;
25950;SDS011;13748;52.240;6.002;2023-04-08T11:45:52;14.32;;;10.40;;
25950;SDS011;13748;52.240;6.002;2023-04-08T11:48:19;15.77;;;10.88;;
25950;SDS011;13748;52.240;6.002;2023-04-08T11:50:46;15.32;;;10.45;;
25950;SDS011;13748;52.240;6.002;2023-04-08T11:55:45;14.70;;;11.35;;
25950;SDS011;13748;52.240;6.002;2023-04-08T11:58:12;14.73;;;11.73;;
25950;SDS011;13748;52.240;6.002;2023-04-08T12:00:39;15.82;;;12.00;;
25950;SDS011;13748;52.240;6.002;2023-04-08T12:03:06;23.02;;;12.63;;
25950;SDS011;13748;52.240;6.002;2023-04-08T12:05:33;17.08;;;12.88;;
25950;SDS011;13748;52.240;6.002;2023-04-08T12:08:01;17.63;;;13.45;;
25950;SDS011;13748;52.240;6.002;2023-04-08T12:10:28;18.35;;;13.80;;
25950;SDS011;13748;52.240;6.002;2023-04-08T12:12:55;15.82;;;12.38;;
25950;SDS011;13748;52.240;6.002;2023-04-08T12:15:22;17.80;;;12.88;;
25950;SDS011;13748;52.240;6.002;2023-04-08T12:17:49;16.85;;;13.23;;
25950;SDS011;13748;52.240;6.002;2023-04-08T12:20:16;22.05;;;14.18;;
25950;SDS011;13748;52.240;6.002;2023-04-08T12:22:46;19.30;;;14.50;;
25950;SDS011;13748;52.240;6.002;2023-04-08T12:25:12;18.60;;;15.13;;
25950;SDS011;13748;52.240;6.002;2023-04-08T12:27:39;23.42;;;15.85;;
25950;SDS011;13748;52.240;6.002;2023-04-08T12:30:07;22.27;;;15.70;;
25950;SDS011;13748;52.240;6.002;2023-04-08T12:32:34;19.33;;;14.40;;
25950;SDS011;13748;52.240;6.002;2023-04-08T12:35:01;20.53;;;14.90;;
25950;SDS011;13748;52.240;6.002;2023-04-08T12:37:28;19.30;;;14.50;;
25950;SDS011;13748;52.240;6.002;2023-04-08T12:39:55;17.97;;;13.67;;
25950;SDS011;13748;52.240;6.002;2023-04-08T12:42:22;21.17;;;14.47;;
25950;SDS011;13748;52.240;6.002;2023-04-08T12:44:49;18.15;;;14.15;;
25950;SDS011;13748;52.240;6.002;2023-04-08T12:47:16;19.00;;;14.27;;
25950;SDS011;13748;52.240;6.002;2023-04-08T12:49:43;19.07;;;13.90;;
25950;SDS011;13748;52.240;6.002;2023-04-08T12:52:13;20.13;;;15.07;;
25950;SDS011;13748;52.240;6.002;2023-04-08T12:54:40;24.42;;;15.63;;
25950;SDS011;13748;52.240;6.002;2023-04-08T12:57:06;17.85;;;12.85;;
25950;SDS011;13748;52.240;6.002;2023-04-08T12:59:34;19.15;;;12.73;;
25950;SDS011;13748;52.240;6.002;2023-04-08T13:02:01;21.45;;;15.57;;
25950;SDS011;13748;52.240;6.002;2023-04-08T13:04:28;23.05;;;15.98;;
25950;SDS011;13748;52.240;6.002;2023-04-08T13:06:54;22.92;;;16.13;;
25950;SDS011;13748;52.240;6.002;2023-04-08T13:09:22;22.15;;;15.75;;
25950;SDS011;13748;52.240;6.002;2023-04-08T13:11:49;21.83;;;15.98;;
25950;SDS011;13748;52.240;6.002;2023-04-08T13:14:15;22.45;;;15.15;;
25950;SDS011;13748;52.240;6.002;2023-04-08T13:16:42;22.50;;;15.35;;
25950;SDS011;13748;52.240;6.002;2023-04-08T13:19:09;22.52;;;15.98;;
25950;SDS011;13748;52.240;6.002;2023-04-08T13:21:36;20.80;;;14.63;;
25950;SDS011;13748;52.240;6.002;2023-04-08T13:24:03;22.05;;;15.43;;
25950;SDS011;13748;52.240;6.002;2023-04-08T13:26:30;22.77;;;15.90;;
25950;SDS011;13748;52.240;6.002;2023-04-08T13:28:57;24.92;;;16.48;;
25950;SDS011;13748;52.240;6.002;2023-04-08T13:31:24;26.75;;;19.15;;
25950;SDS011;13748;52.240;6.002;2023-04-08T13:33:51;20.75;;;15.88;;
25950;SDS011;13748;52.240;6.002;2023-04-08T13:36:22;20.48;;;15.75;;
25950;SDS011;13748;52.240;6.002;2023-04-08T13:38:49;23.52;;;15.63;;
25950;SDS011;13748;52.240;6.002;2023-04-08T13:41:16;24.35;;;16.70;;
25950;SDS011;13748;52.240;6.002;2023-04-08T13:43:42;24.20;;;17.30;;
25950;SDS011;13748;52.240;6.002;2023-04-08T13:46:09;23.55;;;17.55;;
25950;SDS011;13748;52.240;6.002;2023-04-08T13:48:36;22.95;;;16.17;;
25950;SDS011;13748;52.240;6.002;2023-04-08T13:51:03;20.75;;;15.45;;
25950;SDS011;13748;52.240;6.002;2023-04-08T13:53:30;20.23;;;15.77;;
25950;SDS011;13748;52.240;6.002;2023-04-08T13:55:57;20.88;;;15.85;;
25950;SDS011;13748;52.240;6.002;2023-04-08T13:58:24;23.88;;;16.73;;
25950;SDS011;13748;52.240;6.002;2023-04-08T14:00:51;22.15;;;16.30;;
25950;SDS011;13748;52.240;6.002;2023-04-08T14:03:18;22.73;;;15.43;;
25950;SDS011;13748;52.240;6.002;2023-04-08T14:05:45;21.38;;;15.88;;
25950;SDS011;13748;52.240;6.002;2023-04-08T14:08:12;22.48;;;16.65;;
25950;SDS011;13748;52.240;6.002;2023-04-08T14:10:39;24.67;;;16.23;;
25950;SDS011;13748;52.240;6.002;2023-04-08T14:13:07;21.98;;;16.00;;
25950;SDS011;13748;52.240;6.002;2023-04-08T14:15:34;22.55;;;17.00;;
25950;SDS011;13748;52.240;6.002;2023-04-08T14:18:01;22.67;;;16.10;;
25950;SDS011;13748;52.240;6.002;2023-04-08T14:20:28;23.90;;;16.50;;
25950;SDS011;13748;52.240;6.002;2023-04-08T14:22:55;23.17;;;16.60;;
25950;SDS011;13748;52.240;6.002;2023-04-08T14:25:22;21.40;;;15.52;;
25950;SDS011;13748;52.240;6.002;2023-04-08T14:27:49;22.10;;;16.27;;
25950;SDS011;13748;52.240;6.002;2023-04-08T14:30:24;19.92;;;14.98;;
25950;SDS011;13748;52.240;6.002;2023-04-08T14:32:52;21.95;;;15.07;;
25950;SDS011;13748;52.240;6.002;2023-04-08T14:35:19;20.75;;;15.73;;
25950;SDS011;13748;52.240;6.002;2023-04-08T14:37:47;20.88;;;15.63;;
25950;SDS011;13748;52.240;6.002;2023-04-08T14:40:14;22.25;;;16.52;;
25950;SDS011;13748;52.240;6.002;2023-04-08T14:42:41;22.02;;;15.77;;
25950;SDS011;13748;52.240;6.002;2023-04-08T14:45:07;21.83;;;15.18;;
25950;SDS011;13748;52.240;6.002;2023-04-08T14:47:34;20.83;;;15.20;;